Cisne Branco — PWCB — position and weather

sailwx.info

Track history (hours):
 
Tides and Currents Weather Stations Pressure Air Temp Water Temp Dewpoint Dewpoint Depression Visibility Wind Speed Wind Dir Waves Ship Positions

Cisne Branco (Brazil)

Last reported at 2016-Sep-11 19:18 UTC. Time now 2016-Sep-29 10:11 UTC.
Position S 23°09' W 042°46'.
Warning: this ship's position is 17 days out of date.

Length 78 m; draft 4.8 m.

Type: Sailing vessel. MMSI: 710428000.

Date/timePositionNaut miles runAvg speedWind from/ knotsBaromVisibWave heightAir tempDewpointWater temp
2016-Sep-11 19:18S 23°09' W 042°46'3 4.0
2016-Sep-11 18:33S 23°08' W 042°50'4 4.1
2016-Sep-11 17:33S 23°08' W 042°54'5 4.6
2016-Sep-11 16:31S 23°06' W 042°59'6 5.9
2016-Sep-11 15:33S 23°03' W 043°04'6 5.8
2016-Sep-11 14:33S 22°58' W 043°08'6 6.0
2016-Sep-11 13:29S 22°52' W 043°09'1 1.1
2016-Sep-11 12:31S 22°52' W 043°08'0 0.0
2016-Sep-11 11:31S 22°52' W 043°08'0 0.0
2016-Sep-11 10:31S 22°52' W 043°08'0 0.0
2016-Sep-11 08:31S 22°52' W 043°08'0 0.0
2016-Sep-11 07:31S 22°52' W 043°08'0 0.0
2016-Sep-11 06:31S 22°52' W 043°08'  
Track history (hours):
 
Tides and Currents Weather Stations Pressure Air Temp Water Temp Dewpoint Dewpoint Depression Visibility Wind Speed Wind Dir Waves Ship Positions

Cisne Branco (Brazil)

Last reported at 2016-Sep-11 19:18 UTC. Time now 2016-Sep-29 10:11 UTC.
Position S 23°09' W 042°46'.
Warning: this ship's position is 17 days out of date.

Length 78 m; draft 4.8 m.

Type: Sailing vessel. MMSI: 710428000.

Date/timePositionNaut miles runAvg speedWind from/ knotsBaromVisibWave heightAir tempDewpointWater temp
2016-Sep-11 19:18S 23°09' W 042°46'3 4.0
2016-Sep-11 18:33S 23°08' W 042°50'4 4.1
2016-Sep-11 17:33S 23°08' W 042°54'5 4.6
2016-Sep-11 16:31S 23°06' W 042°59'6 5.9
2016-Sep-11 15:33S 23°03' W 043°04'6 5.8
2016-Sep-11 14:33S 22°58' W 043°08'6 6.0
2016-Sep-11 13:29S 22°52' W 043°09'1 1.1
2016-Sep-11 12:31S 22°52' W 043°08'0 0.0
2016-Sep-11 11:31S 22°52' W 043°08'0 0.0
2016-Sep-11 10:31S 22°52' W 043°08'0 0.0
2016-Sep-11 08:31S 22°52' W 043°08'0 0.0
2016-Sep-11 07:31S 22°52' W 043°08'0 0.0
2016-Sep-11 06:31S 22°52' W 043°08'  

Dump ship's entire track history